createdAt,value
2023-03-06T00:00:29.759Z,96717.97
2023-03-06T00:02:31.122Z,96720.63
2023-03-06T00:04:32.457Z,96713.56
2023-03-06T00:06:33.751Z,96714.03
2023-03-06T00:08:35.099Z,96710.91
2023-03-06T00:10:36.433Z,96709.34
2023-03-06T00:12:37.723Z,96712.72
2023-03-06T00:14:39.083Z,96713.59
2023-03-06T00:16:40.432Z,96713.59
2023-03-06T00:18:44.081Z,96709.47
2023-03-06T00:20:45.417Z,96711.25
2023-03-06T00:22:46.764Z,96712.16
2023-03-06T00:24:48.068Z,96711.34
2023-03-06T00:26:49.485Z,96711.38
2023-03-06T00:28:50.806Z,96703.69
2023-03-06T00:30:52.196Z,96707.00
2023-03-06T00:32:53.513Z,96701.03
2023-03-06T00:34:54.859Z,96703.69
2023-03-06T00:36:56.213Z,96701.13
2023-03-06T00:38:57.605Z,96699.47
2023-03-06T00:40:58.940Z,96698.56
2023-03-06T00:43:00.238Z,96698.50
2023-03-06T00:45:01.574Z,96698.50
2023-03-06T00:47:02.928Z,96693.38
2023-03-06T00:49:04.231Z,96690.78
2023-03-06T00:51:07.039Z,96691.19
2023-03-06T00:53:08.404Z,96689.88
2023-03-06T00:55:09.772Z,96687.13
2023-03-06T00:57:11.114Z,96684.34
2023-03-06T00:59:12.456Z,96688.53
2023-03-06T01:01:13.789Z,96684.22
2023-03-06T01:03:15.124Z,96680.69
2023-03-06T01:05:16.507Z,96684.22
2023-03-06T01:07:17.875Z,96682.56
2023-03-06T01:09:19.237Z,96680.09
2023-03-06T01:11:20.531Z,96684.22
2023-03-06T01:13:21.887Z,96681.53
2023-03-06T01:15:23.216Z,96679.09
2023-03-06T01:17:24.544Z,96671.56
2023-03-06T01:19:25.882Z,96671.72
2023-03-06T01:21:27.264Z,96676.06
2023-03-06T01:23:28.573Z,96666.88
2023-03-06T01:25:29.897Z,96524.59
2023-03-06T01:27:31.223Z,96662.03
2023-03-06T01:29:32.586Z,96661.97
2023-03-06T01:31:33.940Z,96656.94
2023-03-06T01:33:35.311Z,96656.19
2023-03-06T01:35:36.666Z,96652.88
2023-03-06T01:37:38.010Z,96658.13
2023-03-06T01:39:39.358Z,96655.66
2023-03-06T01:41:40.705Z,96655.66
2023-03-06T01:43:44.122Z,96653.97
2023-03-06T01:45:45.463Z,96652.38
2023-03-06T01:47:46.809Z,96655.91
2023-03-06T01:49:48.129Z,96655.78
2023-03-06T01:51:49.522Z,96649.91
2023-03-06T01:53:50.857Z,96651.69
2023-03-06T01:55:52.162Z,96650.09
2023-03-06T01:57:53.620Z,96653.41
2023-03-06T01:59:55.023Z,96647.41
2023-03-06T02:01:56.452Z,96650.84
2023-03-06T02:03:57.805Z,96641.41
2023-03-06T02:05:59.150Z,96644.63
2023-03-06T02:08:00.487Z,96638.16
2023-03-06T02:10:01.785Z,96632.81
2023-03-06T02:12:03.111Z,96631.09
2023-03-06T02:14:04.416Z,96637.75
2023-03-06T02:16:05.744Z,96636.09
2023-03-06T02:18:07.068Z,96640.97
2023-03-06T02:20:08.402Z,96634.28
2023-03-06T02:22:09.719Z,96636.84
2023-03-06T02:24:11.011Z,96635.06
2023-03-06T02:26:12.365Z,96625.31
2023-03-06T02:28:13.664Z,96626.53
2023-03-06T02:30:14.971Z,96622.31
2023-03-06T02:32:16.312Z,96617.13
2023-03-06T02:34:17.645Z,96620.59
2023-03-06T02:36:18.973Z,96611.47
2023-03-06T02:38:20.301Z,96611.59
2023-03-06T02:40:21.604Z,96605.06
2023-03-06T02:42:23.010Z,96609.41
2023-03-06T02:44:24.315Z,96603.69
2023-03-06T02:46:25.688Z,96605.91
2023-03-06T02:48:27.017Z,96606.88
2023-03-06T02:50:28.346Z,96602.72
2023-03-06T02:52:29.743Z,96602.88
2023-03-06T02:54:31.051Z,96592.88
2023-03-06T02:56:32.350Z,96596.41
2023-03-06T02:58:33.688Z,96593.97
2023-03-06T03:00:35.012Z,96593.22
2023-03-06T03:02:36.329Z,96588.94
2023-03-06T03:04:37.768Z,96585.56
2023-03-06T03:06:39.164Z,96587.44
2023-03-06T03:08:40.507Z,96583.19
2023-03-06T03:10:41.808Z,96592.66
2023-03-06T03:12:43.176Z,96582.59
2023-03-06T03:14:44.545Z,96580.78
2023-03-06T03:16:46.048Z,96579.63
2023-03-06T03:18:51.210Z,96577.00
2023-03-06T03:20:52.504Z,96579.47
2023-03-06T03:22:53.834Z,96580.47
2023-03-06T03:24:55.206Z,96577.72
2023-03-06T03:26:56.604Z,96576.78
2023-03-06T03:28:57.916Z,96565.44
2023-03-06T03:30:59.305Z,96573.88
2023-03-06T03:33:00.639Z,96561.75
2023-03-06T03:35:01.956Z,96562.41
2023-03-06T03:37:03.357Z,96556.31
2023-03-06T03:39:04.666Z,96554.22
2023-03-06T03:41:05.976Z,96557.25
2023-03-06T03:43:07.307Z,96552.50
2023-03-06T03:45:08.667Z,96553.28
2023-03-06T03:47:09.959Z,96557.09
2023-03-06T03:49:11.295Z,96554.09
2023-03-06T03:51:12.879Z,96557.03
2023-03-06T03:53:14.271Z,96556.50
2023-03-06T03:55:15.621Z,96557.16
2023-03-06T03:57:16.956Z,96558.06
2023-03-06T03:59:18.288Z,96560.31
2023-03-06T04:01:19.583Z,96537.63
2023-03-06T04:03:20.877Z,96550.69
2023-03-06T04:05:22.205Z,96551.03
2023-03-06T04:07:24.419Z,96536.88
2023-03-06T04:09:25.759Z,96533.97
2023-03-06T04:11:27.073Z,96532.09
2023-03-06T04:13:28.372Z,96526.97
2023-03-06T04:15:29.677Z,96527.88
2023-03-06T04:17:34.005Z,96526.28
2023-03-06T04:19:35.316Z,96528.00
2023-03-06T04:21:36.656Z,96522.97
2023-03-06T04:23:38.011Z,96529.78
2023-03-06T04:25:39.375Z,96523.03
2023-03-06T04:27:40.691Z,96523.84
2023-03-06T04:29:41.984Z,96519.59
2023-03-06T04:31:43.450Z,96527.16
2023-03-06T04:33:44.917Z,96521.91
2023-03-06T04:35:46.473Z,96524.13
2023-03-06T04:37:47.789Z,96517.94
2023-03-06T04:39:49.147Z,96519.19
2023-03-06T04:41:50.476Z,96520.53
2023-03-06T04:43:51.943Z,96520.25
2023-03-06T04:45:53.327Z,96514.94
2023-03-06T04:47:54.693Z,96507.88
2023-03-06T04:49:55.991Z,96508.63
2023-03-06T04:51:57.360Z,96505.47
2023-03-06T04:53:58.722Z,96494.78
2023-03-06T04:56:00.011Z,96497.94
2023-03-06T04:58:01.307Z,96500.06
2023-03-06T05:00:02.988Z,96497.09
2023-03-06T05:02:04.370Z,96492.25
2023-03-06T05:04:05.723Z,96497.44
2023-03-06T05:06:07.051Z,96500.88
2023-03-06T05:08:08.359Z,96495.09
2023-03-06T05:10:09.666Z,96492.63
2023-03-06T05:12:10.955Z,96487.44
2023-03-06T05:14:12.253Z,96491.88
2023-03-06T05:16:14.014Z,96496.19
2023-03-06T05:18:15.412Z,96492.06
2023-03-06T05:20:16.765Z,96497.25
2023-03-06T05:22:18.103Z,96483.72
2023-03-06T05:24:19.406Z,96491.44
2023-03-06T05:26:20.745Z,96488.06
2023-03-06T05:28:22.103Z,96486.47
2023-03-06T05:30:23.694Z,96483.13
2023-03-06T05:32:25.058Z,96479.72
2023-03-06T05:34:26.459Z,96482.28
2023-03-06T05:36:27.852Z,96489.03
2023-03-06T05:38:29.320Z,96478.00
2023-03-06T05:40:30.662Z,96478.81
2023-03-06T05:42:31.967Z,96487.16
2023-03-06T05:44:33.358Z,96491.25
2023-03-06T05:46:34.743Z,96491.91
2023-03-06T05:48:37.517Z,96495.22
2023-03-06T05:50:38.828Z,96499.22
2023-03-06T05:52:40.248Z,96496.41
2023-03-06T05:54:41.737Z,96498.66
2023-03-06T05:56:43.029Z,96495.94
2023-03-06T05:58:44.352Z,96491.38
2023-03-06T06:00:45.651Z,96490.41
2023-03-06T06:02:46.966Z,96494.44
2023-03-06T06:04:48.256Z,96494.31
2023-03-06T06:06:49.583Z,96489.94
2023-03-06T06:08:50.923Z,96482.16
2023-03-06T06:10:53.471Z,96494.91
2023-03-06T06:12:54.907Z,96500.94
2023-03-06T06:14:56.253Z,96493.19
2023-03-06T06:16:57.558Z,96504.47
2023-03-06T06:18:59.134Z,96502.06
2023-03-06T06:21:00.504Z,96497.09
2023-03-06T06:23:01.797Z,96495.56
2023-03-06T06:25:03.295Z,96496.47
2023-03-06T06:27:04.623Z,96495.78
2023-03-06T06:29:05.925Z,96494.28
2023-03-06T06:31:07.363Z,96496.94
2023-03-06T06:33:08.725Z,96500.47
2023-03-06T06:35:10.078Z,96498.94
2023-03-06T06:37:11.393Z,96499.03
2023-03-06T06:39:12.729Z,96497.44
2023-03-06T06:43:35.453Z,96495.09
2023-03-06T06:45:36.780Z,96496.06
2023-03-06T06:47:41.765Z,96488.47
2023-03-06T06:49:43.593Z,96493.59
2023-03-06T06:51:45.008Z,96489.50
2023-03-06T06:53:46.337Z,96492.88
2023-03-06T06:55:47.676Z,96492.06
2023-03-06T06:57:49.037Z,96486.16
2023-03-06T06:59:52.584Z,96488.63
2023-03-06T07:01:55.240Z,96485.19
2023-03-06T07:03:56.603Z,96492.75
2023-03-06T07:05:57.943Z,96481.56
2023-03-06T07:07:59.340Z,96487.28
2023-03-06T07:10:00.671Z,96485.34
2023-03-06T07:12:02.036Z,96486.75
2023-03-06T07:14:03.427Z,96482.97
2023-03-06T07:16:04.781Z,96477.63
2023-03-06T07:18:06.149Z,96480.06
2023-03-06T07:20:09.008Z,96479.81
2023-03-06T07:22:10.808Z,96482.97
2023-03-06T07:24:12.118Z,96487.94
2023-03-06T07:26:13.422Z,96486.09
2023-03-06T07:28:14.748Z,96481.72
2023-03-06T07:30:16.091Z,96490.06
2023-03-06T07:32:17.390Z,96484.97
2023-03-06T07:34:18.716Z,96483.31
2023-03-06T07:36:20.075Z,96485.03
2023-03-06T07:38:21.422Z,96486.84
2023-03-06T07:40:25.815Z,96487.72
2023-03-06T07:42:29.232Z,96486.16
2023-03-06T07:44:30.611Z,96491.47
2023-03-06T07:46:32.099Z,96495.06
2023-03-06T07:48:33.422Z,96486.00
2023-03-06T07:50:35.289Z,96489.56
2023-03-06T07:52:36.603Z,96488.06
2023-03-06T07:54:37.914Z,96491.56
2023-03-06T07:56:39.227Z,96490.81
2023-03-06T07:58:40.538Z,96486.78
2023-03-06T08:00:41.848Z,96488.59
2023-03-06T08:02:43.312Z,96491.22
2023-03-06T08:04:44.672Z,96499.03
2023-03-06T08:06:46.039Z,96494.91
2023-03-06T08:08:47.349Z,96502.59
2023-03-06T08:10:49.161Z,96500.97
2023-03-06T08:12:50.496Z,96492.53
2023-03-06T08:14:51.826Z,96489.97
2023-03-06T08:16:53.133Z,96486.69
2023-03-06T08:18:54.474Z,96487.50
2023-03-06T08:20:55.809Z,96485.00
2023-03-06T08:22:57.164Z,96485.84
2023-03-06T08:24:58.480Z,96484.97
2023-03-06T08:26:59.780Z,96489.19
2023-03-06T08:29:02.178Z,96484.75
2023-03-06T08:31:03.481Z,96482.78
2023-03-06T08:33:04.782Z,96491.84
2023-03-06T08:35:06.106Z,96371.44
2023-03-06T08:37:07.579Z,96492.03
2023-03-06T08:39:08.918Z,96496.03
2023-03-06T08:41:10.218Z,96453.13
2023-03-06T08:43:14.010Z,96493.81
2023-03-06T08:45:15.564Z,96491.84
2023-03-06T08:47:16.885Z,96493.59
2023-03-06T08:49:18.218Z,96498.53
2023-03-06T08:51:19.553Z,96499.38
2023-03-06T08:53:22.723Z,96497.59
2023-03-06T08:55:30.124Z,96503.66
2023-03-06T08:57:31.575Z,96497.78
2023-03-06T08:59:32.883Z,96497.13
2023-03-06T09:01:34.753Z,96503.19
2023-03-06T09:03:36.133Z,96493.16
2023-03-06T09:05:37.447Z,96488.84
2023-03-06T09:07:38.758Z,96494.25
2023-03-06T09:09:40.074Z,96495.28
2023-03-06T09:11:41.385Z,96499.69
2023-03-06T09:13:42.732Z,96499.03
2023-03-06T09:15:44.086Z,96493.25
2023-03-06T09:17:45.739Z,96493.47
2023-03-06T09:19:47.084Z,96492.72
2023-03-06T09:21:49.198Z,96491.22
2023-03-06T09:23:53.876Z,96486.13
2023-03-06T09:25:55.236Z,96504.19
2023-03-06T09:28:10.492Z,96487.28
2023-03-06T09:30:12.844Z,96487.44
2023-03-06T09:32:14.213Z,96488.34
2023-03-06T09:34:15.610Z,96492.63
2023-03-06T09:36:16.948Z,96481.72
2023-03-06T09:38:18.281Z,96489.38
2023-03-06T09:40:19.613Z,96484.34
2023-03-06T09:42:20.981Z,96485.19
2023-03-06T09:44:22.294Z,96487.56
2023-03-06T09:46:23.694Z,96487.50
2023-03-06T09:48:25.066Z,96481.31
2023-03-06T09:50:26.378Z,96482.78
2023-03-06T09:52:28.273Z,96488.47
2023-03-06T09:54:29.640Z,96483.09
2023-03-06T09:56:31.952Z,96469.28
2023-03-06T09:58:33.248Z,96460.19
2023-03-06T10:00:34.661Z,96475.75
2023-03-06T10:02:36.008Z,96475.09
2023-03-06T10:04:37.412Z,96471.09
2023-03-06T10:06:38.861Z,96466.41
2023-03-06T10:08:40.162Z,96470.63
2023-03-06T10:10:41.464Z,96469.69
2023-03-06T10:12:42.817Z,96471.22
2023-03-06T10:14:45.434Z,96466.72
2023-03-06T10:16:47.901Z,96467.34
2023-03-06T10:18:49.216Z,96464.53
2023-03-06T10:20:50.557Z,96460.03
2023-03-06T10:23:00.540Z,96453.06
2023-03-06T10:25:04.566Z,96460.66
2023-03-06T10:27:05.923Z,96461.34
2023-03-06T10:29:07.310Z,96455.25
2023-03-06T10:31:08.800Z,96460.28
2023-03-06T10:33:10.328Z,96454.19
2023-03-06T10:35:11.632Z,96458.56
2023-03-06T10:37:12.928Z,96458.66
2023-03-06T10:39:14.235Z,96456.16
2023-03-06T10:41:18.495Z,96457.81
2023-03-06T10:43:19.844Z,96463.66
2023-03-06T10:45:21.155Z,96456.84
2023-03-06T10:47:22.483Z,96456.97
2023-03-06T10:49:23.821Z,96457.06
2023-03-06T10:51:25.135Z,96456.28
2023-03-06T10:53:26.574Z,96451.13
2023-03-06T10:55:28.005Z,96454.56
2023-03-06T10:57:29.555Z,96452.94
2023-03-06T10:59:31.100Z,96449.53
2023-03-06T11:01:32.477Z,96459.03
2023-03-06T11:03:34.249Z,96456.59
2023-03-06T11:05:35.583Z,96449.84
2023-03-06T11:07:36.954Z,96454.19
2023-03-06T11:09:38.395Z,96449.97
2023-03-06T11:11:39.841Z,96446.78
2023-03-06T11:13:41.221Z,96444.44
2023-03-06T11:15:42.547Z,96447.19
2023-03-06T11:17:43.922Z,96442.31
2023-03-06T11:19:45.243Z,96439.03
2023-03-06T11:21:46.540Z,96438.19
2023-03-06T11:23:47.852Z,96443.50
2023-03-06T11:25:50.292Z,96442.75
2023-03-06T11:27:51.627Z,96430.88
2023-03-06T11:29:52.919Z,96433.50
2023-03-06T11:31:54.249Z,96432.84
2023-03-06T11:33:56.710Z,96427.66
2023-03-06T11:35:58.109Z,96427.66
2023-03-06T11:37:59.479Z,96427.66
2023-03-06T11:40:00.810Z,96428.47
2023-03-06T11:42:02.145Z,96431.03
2023-03-06T11:44:03.540Z,96423.28
2023-03-06T11:46:04.893Z,96426.63
2023-03-06T11:48:06.220Z,96418.13
2023-03-06T11:50:07.514Z,96411.22
2023-03-06T11:52:08.820Z,96414.47
2023-03-06T11:54:10.148Z,96405.16
2023-03-06T11:56:11.468Z,96393.91
2023-03-06T11:58:12.892Z,96397.28
2023-03-06T12:00:14.252Z,96395.53
2023-03-06T12:02:15.754Z,96398.94
2023-03-06T12:04:20.274Z,96392.19
2023-03-06T12:06:21.567Z,96398.94
2023-03-06T12:08:22.912Z,96391.28
2023-03-06T12:10:24.450Z,96402.41
2023-03-06T12:12:25.775Z,96400.72
2023-03-06T12:14:27.096Z,96393.97
2023-03-06T12:16:28.483Z,96393.91
2023-03-06T12:18:29.842Z,96396.47
2023-03-06T12:20:31.147Z,96394.66
2023-03-06T12:22:32.895Z,96392.09
2023-03-06T12:24:37.042Z,96392.03
2023-03-06T12:26:38.398Z,96397.06
2023-03-06T12:28:39.774Z,96397.91
2023-03-06T12:30:41.079Z,96396.16
2023-03-06T12:32:42.480Z,96389.28
2023-03-06T12:34:43.837Z,96395.94
2023-03-06T12:36:45.364Z,96392.47
2023-03-06T12:38:46.660Z,96394.97
2023-03-06T12:40:47.996Z,96397.44
2023-03-06T12:42:49.381Z,96402.50
2023-03-06T12:44:50.717Z,96392.28
2023-03-06T12:46:52.088Z,96393.13
2023-03-06T12:48:53.383Z,96392.28
2023-03-06T12:50:54.751Z,96393.91
2023-03-06T12:52:56.094Z,96398.22
2023-03-06T12:54:57.464Z,96391.38
2023-03-06T12:56:58.803Z,96398.22
2023-03-06T12:59:02.549Z,96400.00
2023-03-06T13:01:06.619Z,96395.03
2023-03-06T13:03:07.936Z,96399.34
2023-03-06T13:05:09.458Z,96399.38
2023-03-06T13:07:10.819Z,96393.53
2023-03-06T13:09:12.388Z,96391.13
2023-03-06T13:11:13.728Z,96392.09
2023-03-06T13:13:15.068Z,96391.34
2023-03-06T13:15:16.387Z,96400.66
2023-03-06T13:17:17.694Z,96399.00
2023-03-06T13:19:19.038Z,96404.88
2023-03-06T13:21:20.324Z,96394.81
2023-03-06T13:23:21.619Z,96392.19
2023-03-06T13:25:23.060Z,96391.41
2023-03-06T13:27:24.406Z,96394.75
2023-03-06T13:29:25.754Z,96393.81
2023-03-06T13:31:28.119Z,96387.97
2023-03-06T13:33:37.197Z,96389.69
2023-03-06T13:35:38.548Z,96388.81
2023-03-06T13:37:39.907Z,96390.56
2023-03-06T13:39:41.235Z,96383.00
2023-03-06T13:41:42.629Z,96383.09
2023-03-06T13:43:45.485Z,96383.63
2023-03-06T13:45:47.118Z,96380.69
2023-03-06T13:48:14.144Z,96374.13
2023-03-06T13:50:11.928Z,96372.75
2023-03-06T13:52:13.278Z,96370.06
2023-03-06T13:54:14.624Z,96361.41
2023-03-06T13:56:15.938Z,96354.31
2023-03-06T13:58:17.268Z,96358.88
2023-03-06T14:00:19.118Z,96358.44
2023-03-06T14:02:20.467Z,96359.94
2023-03-06T14:04:22.002Z,96359.88
2023-03-06T14:06:24.020Z,96353.19
2023-03-06T14:08:25.320Z,96351.69
2023-03-06T14:10:26.710Z,96353.09
2023-03-06T14:12:28.120Z,96356.50
2023-03-06T14:14:29.423Z,96357.34
2023-03-06T14:16:37.552Z,96358.50
2023-03-06T14:18:48.871Z,96351.94
2023-03-06T14:20:50.216Z,96354.03
2023-03-06T14:24:52.997Z,96351.19
2023-03-06T14:26:54.354Z,96354.03
2023-03-06T14:28:55.725Z,96351.72
2023-03-06T14:30:57.347Z,96360.25
2023-03-06T14:32:58.692Z,96352.56
2023-03-06T14:34:59.984Z,96355.78
2023-03-06T14:37:01.511Z,96352.22
2023-03-06T14:39:04.256Z,96356.31
2023-03-06T14:41:05.767Z,96346.91
2023-03-06T14:43:07.117Z,96343.09
2023-03-06T14:45:08.418Z,96348.91
2023-03-06T14:47:09.754Z,96353.47
2023-03-06T14:49:11.143Z,96355.03
2023-03-06T14:51:12.441Z,96353.56
2023-03-06T14:53:13.788Z,96352.00
2023-03-06T14:55:15.134Z,96348.69
2023-03-06T14:57:16.494Z,96346.06
2023-03-06T14:59:17.802Z,96348.59
2023-03-06T15:01:19.150Z,96340.69
2023-03-06T15:03:20.580Z,96345.59
2023-03-06T15:05:22.061Z,96336.13
2023-03-06T15:07:23.508Z,96340.16
2023-03-06T15:09:24.880Z,96339.03
2023-03-06T15:11:26.215Z,96343.94
2023-03-06T15:13:27.600Z,96344.53
2023-03-06T15:15:28.976Z,96335.88
2023-03-06T15:17:30.444Z,96340.59
2023-03-06T15:19:31.788Z,96343.81
2023-03-06T15:21:33.152Z,96339.34
2023-03-06T15:23:37.362Z,96335.75
2023-03-06T15:25:38.759Z,96337.22
2023-03-06T15:27:40.136Z,96339.53
2023-03-06T15:29:41.439Z,96336.38
2023-03-06T15:31:42.845Z,96342.41
2023-03-06T15:33:44.227Z,96343.53
2023-03-06T15:35:45.626Z,96346.09
2023-03-06T15:37:46.968Z,96339.31
2023-03-06T15:39:48.264Z,96344.44
2023-03-06T15:41:49.616Z,96333.56
2023-03-06T15:43:50.974Z,96335.44
2023-03-06T15:45:52.308Z,96327.03
2023-03-06T15:47:53.667Z,96328.16
2023-03-06T15:49:55.358Z,96335.97
2023-03-06T15:51:56.747Z,96332.00
2023-03-06T15:54:09.890Z,96330.50
2023-03-06T15:56:13.143Z,96332.38
2023-03-06T15:58:14.458Z,96334.34
2023-03-06T16:00:26.998Z,96329.38
2023-03-06T16:02:28.857Z,96335.53
2023-03-06T16:04:30.196Z,96323.84
2023-03-06T16:06:31.537Z,96323.97
2023-03-06T16:08:32.845Z,96322.41
2023-03-06T16:10:34.191Z,96331.00
2023-03-06T16:12:35.524Z,96321.78
2023-03-06T16:14:36.832Z,96324.38
2023-03-06T16:16:39.659Z,96327.88
2023-03-06T16:18:41.003Z,96324.13
2023-03-06T16:20:42.349Z,96323.75
2023-03-06T16:22:44.328Z,96322.78
2023-03-06T16:24:48.424Z,96342.78
2023-03-06T16:26:50.997Z,96322.47
2023-03-06T16:28:52.323Z,96322.88
2023-03-06T16:30:56.769Z,96327.09
2023-03-06T16:35:05.493Z,96311.66
2023-03-06T16:37:09.988Z,96320.06
2023-03-06T16:39:11.418Z,96319.81
2023-03-06T16:41:12.720Z,96321.44
2023-03-06T16:43:17.180Z,96310.91
2023-03-06T16:45:21.387Z,96319.16
2023-03-06T16:47:22.761Z,96316.84
2023-03-06T16:49:24.133Z,96320.00
2023-03-06T16:51:25.513Z,96317.34
2023-03-06T16:53:26.884Z,96320.38
2023-03-06T16:55:28.199Z,96322.53
2023-03-06T16:57:35.556Z,96326.31
2023-03-06T16:59:36.908Z,96323.94
2023-03-06T17:01:38.720Z,96331.97
2023-03-06T17:03:40.112Z,96321.81
2023-03-06T17:05:43.773Z,96327.47
2023-03-06T17:07:45.428Z,96325.22
2023-03-06T17:09:52.696Z,96327.88
2023-03-06T17:11:54.046Z,96340.44
2023-03-06T17:13:58.311Z,96340.13
2023-03-06T17:16:01.901Z,96343.09
2023-03-06T17:18:03.383Z,96344.81
2023-03-06T17:20:07.459Z,96338.38
2023-03-06T17:22:08.811Z,96347.38
2023-03-06T17:24:10.155Z,96349.94
2023-03-06T17:26:14.302Z,96355.06
2023-03-06T17:28:15.708Z,96360.03
2023-03-06T17:30:17.109Z,96362.47
2023-03-06T17:32:18.502Z,96366.03
2023-03-06T17:34:24.558Z,96375.44
2023-03-06T17:36:26.015Z,96374.59
2023-03-06T17:38:27.495Z,96369.31
2023-03-06T17:40:28.849Z,96376.16
2023-03-06T17:42:30.195Z,96382.84
2023-03-06T17:44:31.517Z,96388.72
2023-03-06T17:46:34.588Z,96392.75
2023-03-06T17:48:35.982Z,96394.16
2023-03-06T17:50:37.272Z,96398.97
2023-03-06T17:52:39.029Z,96397.81
2023-03-06T17:54:40.519Z,96395.91
2023-03-06T17:56:41.837Z,96392.19
2023-03-06T17:58:43.218Z,96393.75
2023-03-06T18:00:44.585Z,96389.22
2023-03-06T18:02:45.915Z,96383.78
2023-03-06T18:04:53.398Z,96389.56
2023-03-06T18:06:54.772Z,96389.47
2023-03-06T18:08:56.243Z,96382.88
2023-03-06T18:10:57.539Z,96380.22
2023-03-06T18:12:58.882Z,96386.66
2023-03-06T18:15:00.283Z,96394.19
2023-03-06T18:17:02.233Z,96391.03
2023-03-06T18:19:03.772Z,96384.44
2023-03-06T18:21:05.117Z,96387.28
2023-03-06T18:23:06.507Z,96389.78
2023-03-06T18:25:10.592Z,96386.44
2023-03-06T18:27:11.972Z,96388.66
2023-03-06T18:29:13.272Z,96387.50
2023-03-06T18:33:16.056Z,96397.66
2023-03-06T18:35:20.361Z,96391.03
2023-03-06T18:37:21.767Z,96395.44
2023-03-06T18:39:23.134Z,96398.59
2023-03-06T18:41:24.522Z,96384.50
2023-03-06T18:43:25.851Z,96388.00
2023-03-06T18:45:30.201Z,96387.28
2023-03-06T18:47:31.699Z,96390.31
2023-03-06T18:49:32.999Z,96387.28
2023-03-06T18:51:34.304Z,96390.72
2023-03-06T18:53:35.644Z,96398.44
2023-03-06T18:55:37.049Z,96392.16
2023-03-06T18:57:38.390Z,96401.38
2023-03-06T18:59:42.513Z,96401.69
2023-03-06T19:01:43.851Z,96409.94
2023-03-06T19:03:45.226Z,96403.69
2023-03-06T19:05:47.208Z,96395.84
2023-03-06T19:09:52.491Z,96398.97
2023-03-06T19:11:54.964Z,96399.63
2023-03-06T19:13:56.527Z,96392.88
2023-03-06T19:16:00.977Z,96397.91
2023-03-06T19:18:02.295Z,96401.78
2023-03-06T19:20:04.355Z,96394.44
2023-03-06T19:22:05.694Z,96398.13
2023-03-06T19:24:13.214Z,96400.41
2023-03-06T19:26:17.250Z,96402.22
2023-03-06T19:28:18.548Z,96401.97
2023-03-06T19:30:25.538Z,96395.09
2023-03-06T19:32:33.560Z,96404.16
2023-03-06T19:34:34.937Z,96398.72
2023-03-06T19:36:38.513Z,96396.84
2023-03-06T19:38:39.853Z,96390.00
2023-03-06T19:40:41.201Z,96400.91
2023-03-06T19:42:42.549Z,96401.38
2023-03-06T19:44:43.846Z,96399.78
2023-03-06T19:46:45.152Z,96395.56
2023-03-06T19:48:52.329Z,96393.91
2023-03-06T19:50:53.700Z,96396.88
2023-03-06T19:52:55.922Z,96388.75
2023-03-06T19:54:57.221Z,96394.59
2023-03-06T19:56:58.568Z,96395.09
2023-03-06T19:59:00.109Z,96398.72
2023-03-06T20:01:01.449Z,96400.47
2023-03-06T20:03:02.889Z,96404.81
2023-03-06T20:05:04.188Z,96401.19
2023-03-06T20:07:05.497Z,96397.22
2023-03-06T20:09:06.934Z,96398.81
2023-03-06T20:11:08.261Z,96399.03
2023-03-06T20:13:13.287Z,96402.66
2023-03-06T20:15:14.679Z,96398.56
2023-03-06T20:17:16.092Z,96405.06
2023-03-06T20:19:21.820Z,96408.53
2023-03-06T20:21:23.364Z,96402.81
2023-03-06T20:23:24.650Z,96404.91
2023-03-06T20:25:26.511Z,96410.28
2023-03-06T20:27:27.917Z,96406.88
2023-03-06T20:29:29.235Z,96408.47
2023-03-06T20:31:30.683Z,96410.72
2023-03-06T20:33:32.056Z,96408.75
2023-03-06T20:35:33.364Z,96400.75
2023-03-06T20:37:34.736Z,96401.13
2023-03-06T20:39:36.098Z,96397.94
2023-03-06T20:41:37.517Z,96397.16
2023-03-06T20:43:38.818Z,96402.66
2023-03-06T20:45:40.120Z,96405.53
2023-03-06T20:47:47.436Z,96398.38
2023-03-06T20:49:48.811Z,96400.22
2023-03-06T20:51:50.407Z,96390.91
2023-03-06T20:53:53.023Z,96390.53
2023-03-06T20:55:54.401Z,96388.34
2023-03-06T20:57:55.767Z,96381.63
2023-03-06T20:59:57.101Z,96376.34
2023-03-06T21:01:58.432Z,96379.00
2023-03-06T21:03:59.776Z,96381.44
2023-03-06T21:06:01.080Z,96377.78
2023-03-06T21:08:02.434Z,96370.69
2023-03-06T21:10:03.771Z,96377.72
2023-03-06T21:12:05.095Z,96376.66
2023-03-06T21:14:06.444Z,96373.03
2023-03-06T21:16:07.855Z,96375.38
2023-03-06T21:18:09.170Z,96374.13
2023-03-06T21:20:10.552Z,96372.81
2023-03-06T21:22:11.943Z,96377.81
2023-03-06T21:24:14.293Z,96368.97
2023-03-06T21:26:15.596Z,96372.53
2023-03-06T21:28:16.927Z,96380.72
2023-03-06T21:30:18.279Z,96370.97
2023-03-06T21:32:19.660Z,96379.56
2023-03-06T21:34:21.021Z,96378.50
2023-03-06T21:36:22.588Z,96376.53
2023-03-06T21:38:23.929Z,96376.44
2023-03-06T21:40:25.273Z,96372.81
2023-03-06T21:42:26.576Z,96373.53
2023-03-06T21:44:27.889Z,96377.31
2023-03-06T21:46:29.236Z,96382.41
2023-03-06T21:48:30.576Z,96385.59
2023-03-06T21:50:31.883Z,96367.59
2023-03-06T21:52:33.208Z,96362.09
2023-03-06T21:54:34.547Z,96356.94
2023-03-06T21:56:35.852Z,96351.25
2023-03-06T21:58:37.181Z,96352.81
2023-03-06T22:00:38.701Z,96233.72
2023-03-06T22:02:40.054Z,96360.41
2023-03-06T22:04:41.642Z,96357.00
2023-03-06T22:06:42.964Z,96352.31
2023-03-06T22:08:44.280Z,96355.94
2023-03-06T22:10:48.453Z,96358.38
2023-03-06T22:12:49.844Z,96357.97
2023-03-06T22:14:51.761Z,96350.25
2023-03-06T22:16:53.163Z,96351.72
2023-03-06T22:18:54.556Z,96348.19
2023-03-06T22:20:55.892Z,96341.19
2023-03-06T22:22:57.232Z,96345.31
2023-03-06T22:24:58.623Z,96333.50
2023-03-06T22:26:59.952Z,96342.75
2023-03-06T22:29:01.247Z,96334.19
2023-03-06T22:31:02.552Z,96336.81
2023-03-06T22:33:03.890Z,96333.25
2023-03-06T22:35:05.179Z,96335.19
2023-03-06T22:37:06.520Z,96334.41
2023-03-06T22:39:07.861Z,96332.09
2023-03-06T22:41:09.172Z,96327.09
2023-03-06T22:43:10.480Z,96330.00
2023-03-06T22:45:11.808Z,96330.38
2023-03-06T22:47:13.112Z,96333.03
2023-03-06T22:49:15.831Z,96331.63
2023-03-06T22:51:17.185Z,96321.66
2023-03-06T22:53:18.528Z,96320.09
2023-03-06T22:55:19.842Z,96323.69
2023-03-06T22:57:21.159Z,96330.59
2023-03-06T22:59:22.462Z,96328.94
2023-03-06T23:01:25.177Z,96336.63
2023-03-06T23:03:26.604Z,96333.38
2023-03-06T23:05:29.455Z,96336.13
2023-03-06T23:07:30.904Z,96333.72
2023-03-06T23:09:33.106Z,96330.38
2023-03-06T23:11:34.402Z,96323.66
2023-03-06T23:13:35.704Z,96327.19
2023-03-06T23:15:37.351Z,96320.41
2023-03-06T23:17:38.689Z,96322.22
2023-03-06T23:19:40.040Z,96316.44
2023-03-06T23:21:41.344Z,96320.81
2023-03-06T23:23:44.204Z,96320.94
2023-03-06T23:25:45.597Z,96327.78
2023-03-06T23:27:46.900Z,96315.94
2023-03-06T23:29:48.272Z,96316.00
2023-03-06T23:31:49.599Z,96317.81
2023-03-06T23:33:50.943Z,96317.97
2023-03-06T23:35:52.313Z,96314.56
2023-03-06T23:37:53.717Z,96313.81
2023-03-06T23:39:55.016Z,96317.22
2023-03-06T23:41:56.341Z,96322.19
2023-03-06T23:43:57.647Z,96317.97
2023-03-06T23:45:59.096Z,96311.88
2023-03-06T23:48:00.486Z,96308.28
2023-03-06T23:50:02.208Z,96308.03
2023-03-06T23:52:04.370Z,96306.00
2023-03-06T23:54:05.891Z,96295.28
2023-03-06T23:56:07.232Z,96290.72
2023-03-06T23:58:08.528Z,96292.19
